Time;durP1;ratioP1;P1;durP2;ratioP2;P2;SDS_P1;SDS_P2;PMS_P1;PMS_P2;Temp;Humidity;BMP_temperature;BMP_pressure;BME280_temperature;BME280_humidity;BME280_pressure;Samples;Min_cycle;Max_cycle;Signal;HPM_P1;HPM_P2
2021/08/12 00:00:52;;;;;;;10.75;8.48;;;;;;;;;;5028146;28;20041;-78
2021/08/12 00:03:18;;;;;;;12.30;9.32;;;;;;;;;;5008660;28;20481;-78
2021/08/12 00:05:43;;;;;;;11.80;8.70;;;;;;;;;;5029558;28;20043;-77
2021/08/12 00:08:08;;;;;;;11.70;8.88;;;;;;;;;;5029306;28;20037;-78
2021/08/12 00:10:34;;;;;;;11.13;8.48;;;;;;;;;;5009676;28;20042;-78
2021/08/12 00:12:59;;;;;;;10.85;8.18;;;;;;;;;;5019051;28;20042;-78
2021/08/12 00:15:25;;;;;;;13.65;8.70;;;;;;;;;;5021606;28;20555;-78
2021/08/12 00:17:52;;;;;;;12.95;8.38;;;;;;;;;;5028363;28;20094;-77
2021/08/12 00:20:17;;;;;;;11.18;8.00;;;;;;;;;;5004705;28;20038;-78
2021/08/12 00:22:43;;;;;;;11.68;8.63;;;;;;;;;;5029321;28;20047;-77
2021/08/12 00:25:08;;;;;;;12.02;9.05;;;;;;;;;;5028264;28;20041;-77
2021/08/12 00:27:34;;;;;;;14.73;9.23;;;;;;;;;;5024414;28;20049;-77
2021/08/12 00:29:59;;;;;;;13.18;9.05;;;;;;;;;;5024389;28;20033;-78
2021/08/12 00:32:25;;;;;;;10.65;8.55;;;;;;;;;;5026404;28;20056;-78
2021/08/12 00:34:50;;;;;;;11.52;9.27;;;;;;;;;;5020761;28;20038;-77
2021/08/12 00:37:16;;;;;;;13.63;8.75;;;;;;;;;;5029575;28;20125;-77
2021/08/12 00:39:41;;;;;;;11.77;9.15;;;;;;;;;;5027147;28;20145;-77
2021/08/12 00:42:07;;;;;;;11.48;8.70;;;;;;;;;;5010955;28;20025;-77
2021/08/12 00:44:32;;;;;;;12.38;9.10;;;;;;;;;;5026719;28;20029;-78
2021/08/12 00:46:58;;;;;;;12.00;8.57;;;;;;;;;;5023901;28;20037;-77
2021/08/12 00:49:23;;;;;;;11.38;8.68;;;;;;;;;;5027740;28;20037;-77
2021/08/12 00:51:49;;;;;;;15.88;9.27;;;;;;;;;;5026435;28;20100;-77
2021/08/12 00:54:15;;;;;;;14.18;9.05;;;;;;;;;;5030259;28;20033;-78
2021/08/12 00:56:42;;;;;;;12.73;9.25;;;;;;;;;;5030490;28;20032;-78
2021/08/12 00:59:07;;;;;;;14.27;8.55;;;;;;;;;;5026123;28;20497;-77
2021/08/12 01:01:33;;;;;;;12.05;8.70;;;;;;;;;;5021290;28;20068;-78
2021/08/12 01:04:02;;;;;;;11.07;8.30;;;;;;;;;;5020429;28;20124;-77
2021/08/12 01:06:31;;;;;;;12.02;8.90;;;;;;;;;;5029879;28;20029;-78
2021/08/12 01:09:02;;;;;;;11.35;8.63;;;;;;;;;;5032476;28;20045;-77
2021/08/12 01:11:46;;;;;;;12.52;8.90;;;;;;;;;;5030961;28;20554;-77
2021/08/12 01:14:35;;;;;;;12.02;9.18;;;;;;;;;;5028065;28;20322;-78
2021/08/12 01:17:07;;;;;;;13.25;9.30;;;;;;;;;;5023222;28;20112;-77
2021/08/12 01:19:35;;;;;;;12.90;9.50;;;;;;;;;;5024219;28;20096;-77
2021/08/12 01:22:04;;;;;;;11.68;9.27;;;;;;;;;;5030778;28;20099;-77
2021/08/12 01:24:33;;;;;;;13.68;9.50;;;;;;;;;;5026336;28;20029;-77
2021/08/12 01:27:03;;;;;;;12.52;9.68;;;;;;;;;;5024403;28;20034;-77
2021/08/12 01:29:55;;;;;;;19.40;9.73;;;;;;;;;;5026829;28;20032;-77
2021/08/12 01:32:25;;;;;;;11.10;8.75;;;;;;;;;;5028002;28;20057;-77
2021/08/12 01:35:00;;;;;;;13.25;8.98;;;;;;;;;;5027462;28;20496;-77
2021/08/12 01:37:32;;;;;;;14.52;9.65;;;;;;;;;;5028309;28;20100;-77
2021/08/12 01:39:59;;;;;;;11.43;9.30;;;;;;;;;;5023402;28;20060;-77
2021/08/12 01:42:28;;;;;;;11.85;9.30;;;;;;;;;;5013158;28;20479;-77
2021/08/12 01:44:56;;;;;;;13.48;9.68;;;;;;;;;;5007232;28;20037;-77
2021/08/12 01:47:24;;;;;;;12.63;9.48;;;;;;;;;;5028087;28;20044;-77
2021/08/12 01:49:51;;;;;;;14.48;9.48;;;;;;;;;;5026551;28;20033;-77
2021/08/12 01:52:18;;;;;;;11.43;8.82;;;;;;;;;;5023082;28;20117;-78
2021/08/12 01:54:44;;;;;;;11.38;9.25;;;;;;;;;;5028208;28;20020;-77
2021/08/12 01:57:11;;;;;;;11.95;8.57;;;;;;;;;;5031424;28;20033;-77
2021/08/12 01:59:38;;;;;;;11.30;8.82;;;;;;;;;;5029125;28;20480;-78
2021/08/12 02:02:05;;;;;;;12.10;9.20;;;;;;;;;;5026562;28;20105;-77
2021/08/12 02:04:33;;;;;;;12.00;9.32;;;;;;;;;;5026042;28;20041;-77
2021/08/12 02:07:00;;;;;;;11.77;9.18;;;;;;;;;;5028801;28;20032;-78
2021/08/12 02:09:26;;;;;;;11.50;8.65;;;;;;;;;;5026924;28;20676;-77
2021/08/12 02:11:51;;;;;;;11.25;8.55;;;;;;;;;;5011289;28;20048;-78
2021/08/12 02:14:16;;;;;;;11.32;8.30;;;;;;;;;;5027314;28;20039;-78
2021/08/12 02:16:42;;;;;;;12.52;9.15;;;;;;;;;;5026452;28;20029;-77
2021/08/12 02:19:07;;;;;;;11.75;8.85;;;;;;;;;;5035215;28;20112;-78
2021/08/12 02:21:58;;;;;;;11.63;8.63;;;;;;;;;;5026077;28;20038;-77
2021/08/12 02:25:05;;;;;;;13.27;9.95;;;;;;;;;;5022163;28;20037;-77
2021/08/12 02:27:37;;;;;;;12.40;8.75;;;;;;;;;;5035878;28;20196;-78
2021/08/12 02:30:02;;;;;;;12.18;8.63;;;;;;;;;;5027987;28;20033;-77
2021/08/12 02:32:32;;;;;;;11.88;8.70;;;;;;;;;;5026146;28;20504;-77
2021/08/12 02:34:59;;;;;;;11.70;9.23;;;;;;;;;;5020348;28;20061;-77
2021/08/12 02:37:26;;;;;;;11.90;9.20;;;;;;;;;;5030617;28;20042;-78
2021/08/12 02:39:52;;;;;;;11.30;8.85;;;;;;;;;;5028074;28;20029;-77
2021/08/12 02:42:19;;;;;;;11.52;9.52;;;;;;;;;;5006883;28;20048;-78
2021/08/12 02:44:45;;;;;;;13.80;9.55;;;;;;;;;;5028215;28;20098;-78
2021/08/12 02:47:14;;;;;;;11.70;8.82;;;;;;;;;;5024712;28;20038;-77
2021/08/12 02:49:43;;;;;;;15.55;9.50;;;;;;;;;;5027308;28;20148;-78
2021/08/12 02:52:11;;;;;;;13.32;9.55;;;;;;;;;;5028552;28;20503;-77
2021/08/12 02:54:37;;;;;;;12.90;9.57;;;;;;;;;;5027749;28;20140;-77
2021/08/12 02:57:03;;;;;;;13.55;10.07;;;;;;;;;;5024905;28;20121;-77
2021/08/12 02:59:29;;;;;;;13.55;9.02;;;;;;;;;;5027389;28;20041;-78
2021/08/12 03:01:55;;;;;;;13.68;9.57;;;;;;;;;;5034357;28;20132;-77
2021/08/12 03:04:22;;;;;;;14.65;9.77;;;;;;;;;;5026079;28;20504;-77
2021/08/12 03:06:56;;;;;;;12.05;9.68;;;;;;;;;;5031545;28;20039;-77
2021/08/12 03:09:22;;;;;;;12.10;9.15;;;;;;;;;;5036929;28;20040;-77
2021/08/12 03:11:49;;;;;;;14.40;9.70;;;;;;;;;;5041932;28;20033;-77
2021/08/12 03:14:15;;;;;;;14.77;9.18;;;;;;;;;;5024304;28;20030;-77
2021/08/12 03:16:41;;;;;;;13.38;9.80;;;;;;;;;;5020491;28;20036;-77
2021/08/12 03:19:07;;;;;;;11.68;9.32;;;;;;;;;;5015338;28;20120;-78
2021/08/12 03:21:32;;;;;;;13.50;9.57;;;;;;;;;;5031209;28;20042;-78
2021/08/12 03:24:02;;;;;;;11.60;9.68;;;;;;;;;;5014625;28;20052;-77
2021/08/12 03:26:28;;;;;;;12.65;9.50;;;;;;;;;;5029940;28;20037;-77
2021/08/12 03:28:54;;;;;;;12.90;9.95;;;;;;;;;;5031384;28;20029;-78
2021/08/12 03:31:20;;;;;;;13.27;10.10;;;;;;;;;;5028657;28;20026;-77
2021/08/12 03:33:45;;;;;;;13.85;9.77;;;;;;;;;;5024985;28;20032;-77
2021/08/12 03:36:11;;;;;;;11.85;9.88;;;;;;;;;;5013991;28;20029;-77
2021/08/12 03:38:36;;;;;;;11.73;9.32;;;;;;;;;;5030245;28;20019;-78
2021/08/12 03:41:02;;;;;;;13.50;9.82;;;;;;;;;;5027844;28;20566;-77
2021/08/12 03:43:27;;;;;;;13.23;9.70;;;;;;;;;;5032190;28;20120;-77
2021/08/12 03:45:53;;;;;;;12.30;8.90;;;;;;;;;;5014809;28;20740;-77
2021/08/12 03:48:18;;;;;;;14.45;10.20;;;;;;;;;;5030369;28;20111;-78
2021/08/12 03:50:44;;;;;;;12.45;9.45;;;;;;;;;;5013179;28;20036;-77
2021/08/12 03:53:09;;;;;;;13.35;9.60;;;;;;;;;;5026777;28;20034;-77
2021/08/12 03:55:35;;;;;;;12.18;9.52;;;;;;;;;;5029548;28;20115;-77
2021/08/12 03:58:00;;;;;;;13.50;9.98;;;;;;;;;;5024056;28;20051;-77
2021/08/12 04:00:26;;;;;;;14.05;9.68;;;;;;;;;;5026837;28;20048;-78
2021/08/12 04:02:51;;;;;;;11.63;8.77;;;;;;;;;;5010460;28;20040;-77
2021/08/12 04:05:17;;;;;;;14.40;9.60;;;;;;;;;;5026799;28;20474;-77
2021/08/12 04:07:42;;;;;;;12.80;9.52;;;;;;;;;;5021005;28;20037;-78
2021/08/12 04:10:10;;;;;;;11.68;9.02;;;;;;;;;;5018029;28;20088;-78
2021/08/12 04:12:35;;;;;;;12.88;9.55;;;;;;;;;;5032012;28;20041;-77
2021/08/12 04:15:00;;;;;;;11.73;8.90;;;;;;;;;;5029560;28;20039;-77
2021/08/12 04:17:26;;;;;;;14.35;9.77;;;;;;;;;;5014089;28;20030;-77
2021/08/12 04:19:51;;;;;;;13.85;9.63;;;;;;;;;;5029085;28;20044;-77
2021/08/12 04:22:17;;;;;;;13.98;10.45;;;;;;;;;;5023848;28;20048;-77
2021/08/12 04:24:42;;;;;;;12.98;9.60;;;;;;;;;;5028072;28;20033;-77
2021/08/12 04:27:08;;;;;;;12.35;9.65;;;;;;;;;;5023198;28;20035;-78
2021/08/12 04:29:35;;;;;;;14.55;9.60;;;;;;;;;;5020940;28;20025;-77
2021/08/12 04:32:00;;;;;;;14.90;9.60;;;;;;;;;;5027473;28;20489;-77
2021/08/12 04:34:26;;;;;;;12.95;9.43;;;;;;;;;;5026680;28;20030;-77
2021/08/12 04:36:51;;;;;;;12.38;9.13;;;;;;;;;;5024817;28;20037;-77
2021/08/12 04:39:16;;;;;;;14.93;10.35;;;;;;;;;;5024541;28;20068;-78
2021/08/12 04:41:42;;;;;;;13.38;9.68;;;;;;;;;;5033428;28;20036;-78
2021/08/12 04:44:07;;;;;;;13.27;9.82;;;;;;;;;;5026361;28;20040;-77
2021/08/12 04:46:33;;;;;;;12.75;9.50;;;;;;;;;;5028267;28;20087;-77
2021/08/12 04:48:58;;;;;;;13.15;9.80;;;;;;;;;;5022865;28;20030;-77
2021/08/12 04:51:23;;;;;;;12.70;9.45;;;;;;;;;;5020416;28;20133;-77
2021/08/12 04:53:49;;;;;;;12.25;9.90;;;;;;;;;;5029251;28;20033;-78
2021/08/12 04:56:14;;;;;;;12.60;9.63;;;;;;;;;;5025268;28;20033;-77
2021/08/12 04:58:40;;;;;;;11.95;9.05;;;;;;;;;;5030225;28;20329;-78
2021/08/12 05:01:05;;;;;;;11.75;9.75;;;;;;;;;;5027503;28;20385;-77
2021/08/12 05:03:31;;;;;;;13.00;9.35;;;;;;;;;;5009300;28;20042;-77
2021/08/12 05:06:01;;;;;;;12.40;10.15;;;;;;;;;;5005850;28;20052;-77
2021/08/12 05:08:26;;;;;;;12.95;10.15;;;;;;;;;;5027714;28;20026;-77
2021/08/12 05:10:51;;;;;;;13.10;10.10;;;;;;;;;;5012317;28;20052;-77
2021/08/12 05:13:17;;;;;;;13.02;9.73;;;;;;;;;;5025989;28;20033;-77
2021/08/12 05:15:42;;;;;;;14.30;10.48;;;;;;;;;;5012718;28;20037;-78
2021/08/12 05:18:07;;;;;;;14.20;10.27;;;;;;;;;;5008669;28;20037;-77
2021/08/12 05:20:33;;;;;;;12.23;10.00;;;;;;;;;;5025170;28;20034;-77
2021/08/12 05:22:58;;;;;;;13.75;10.40;;;;;;;;;;5010149;28;20474;-77
2021/08/12 05:25:24;;;;;;;14.65;10.15;;;;;;;;;;5008259;28;20099;-77
2021/08/12 05:27:49;;;;;;;14.02;10.38;;;;;;;;;;5026726;28;20539;-77
2021/08/12 05:30:15;;;;;;;11.02;9.02;;;;;;;;;;5026061;28;20083;-77
2021/08/12 05:32:40;;;;;;;12.63;9.57;;;;;;;;;;5009352;28;20071;-77
2021/08/12 05:35:06;;;;;;;14.65;11.00;;;;;;;;;;5028234;28;20033;-77
2021/08/12 05:37:31;;;;;;;14.40;10.60;;;;;;;;;;5023647;28;20092;-77
2021/08/12 05:39:56;;;;;;;12.93;10.38;;;;;;;;;;5009473;28;20091;-77
2021/08/12 05:42:22;;;;;;;14.90;11.43;;;;;;;;;;5023670;28;20033;-77
2021/08/12 05:44:47;;;;;;;16.33;11.73;;;;;;;;;;5009706;28;20041;-77
2021/08/12 05:47:13;;;;;;;13.48;11.40;;;;;;;;;;5008814;28;20120;-78
2021/08/12 05:49:38;;;;;;;15.05;11.20;;;;;;;;;;5005155;28;20029;-78
2021/08/12 05:52:04;;;;;;;17.40;12.05;;;;;;;;;;5011636;28;20037;-77
2021/08/12 05:54:30;;;;;;;16.23;11.70;;;;;;;;;;5021339;28;20421;-77
2021/08/12 05:56:55;;;;;;;13.63;11.43;;;;;;;;;;5024050;28;20087;-78
2021/08/12 05:59:21;;;;;;;14.40;12.00;;;;;;;;;;5025342;28;20041;-77
2021/08/12 06:01:46;;;;;;;15.90;11.95;;;;;;;;;;5007769;28;20057;-77
2021/08/12 06:04:11;;;;;;;19.95;12.60;;;;;;;;;;5021804;28;20049;-77
2021/08/12 06:06:38;;;;;;;15.48;11.77;;;;;;;;;;5011672;28;20532;-77
2021/08/12 06:09:03;;;;;;;14.45;11.30;;;;;;;;;;5011726;28;20049;-77
2021/08/12 06:11:29;;;;;;;12.75;9.48;;;;;;;;;;5013365;28;20473;-77
2021/08/12 06:13:54;;;;;;;16.65;11.25;;;;;;;;;;5027713;28;20033;-77
2021/08/12 06:16:20;;;;;;;15.40;11.15;;;;;;;;;;5028912;28;20084;-77
2021/08/12 06:18:45;;;;;;;15.13;11.02;;;;;;;;;;5027569;28;20064;-77
2021/08/12 06:21:13;;;;;;;14.25;10.85;;;;;;;;;;5002539;28;20481;-77
2021/08/12 06:23:39;;;;;;;14.52;11.05;;;;;;;;;;5023439;28;20068;-77
2021/08/12 06:26:04;;;;;;;15.77;12.73;;;;;;;;;;5020095;28;20104;-78
2021/08/12 06:28:30;;;;;;;16.25;13.13;;;;;;;;;;5024631;28;20167;-78
2021/08/12 06:30:55;;;;;;;16.33;12.77;;;;;;;;;;5027209;28;20036;-78
2021/08/12 06:33:20;;;;;;;18.40;11.55;;;;;;;;;;5009760;28;20045;-77
2021/08/12 06:35:46;;;;;;;14.77;11.93;;;;;;;;;;5026753;28;20076;-77
2021/08/12 06:38:11;;;;;;;17.02;12.25;;;;;;;;;;5025331;28;20045;-77
2021/08/12 06:40:37;;;;;;;18.05;13.27;;;;;;;;;;5028173;28;20037;-78
2021/08/12 06:43:03;;;;;;;16.05;11.90;;;;;;;;;;5010067;28;20064;-77
2021/08/12 06:45:28;;;;;;;14.50;11.55;;;;;;;;;;5030060;28;20025;-77
2021/08/12 06:47:54;;;;;;;16.88;13.55;;;;;;;;;;5029948;28;20030;-78
2021/08/12 06:50:21;;;;;;;14.98;12.13;;;;;;;;;;5023549;28;20034;-78
2021/08/12 06:52:47;;;;;;;16.17;12.00;;;;;;;;;;5046835;28;20025;-77
2021/08/12 06:55:13;;;;;;;15.00;11.93;;;;;;;;;;5028376;28;20036;-77
2021/08/12 06:57:38;;;;;;;14.38;11.80;;;;;;;;;;5027988;28;20044;-78
2021/08/12 07:00:06;;;;;;;16.08;12.60;;;;;;;;;;5015323;28;20063;-78
2021/08/12 07:02:32;;;;;;;16.00;12.32;;;;;;;;;;5031982;28;20060;-78
2021/08/12 07:04:57;;;;;;;15.45;12.63;;;;;;;;;;5022843;28;20600;-77
2021/08/12 07:07:23;;;;;;;16.38;12.30;;;;;;;;;;4999144;28;20034;-77
2021/08/12 07:09:51;;;;;;;23.20;13.07;;;;;;;;;;5028495;28;20088;-77
2021/08/12 07:12:16;;;;;;;14.40;11.73;;;;;;;;;;5031553;28;20025;-77
2021/08/12 07:14:42;;;;;;;15.05;11.80;;;;;;;;;;5016475;28;20540;-77
2021/08/12 07:17:07;;;;;;;15.57;11.68;;;;;;;;;;5013223;28;20033;-77
2021/08/12 07:19:33;;;;;;;14.30;10.77;;;;;;;;;;5026035;28;20056;-77
2021/08/12 07:21:58;;;;;;;17.27;10.60;;;;;;;;;;5026040;28;20080;-77
2021/08/12 07:24:25;;;;;;;12.65;10.23;;;;;;;;;;5012174;28;20029;-77
2021/08/12 07:26:51;;;;;;;15.32;9.90;;;;;;;;;;5014370;28;20036;-77
2021/08/12 07:29:17;;;;;;;12.93;9.88;;;;;;;;;;5017827;28;20021;-77
2021/08/12 07:31:43;;;;;;;12.25;9.48;;;;;;;;;;5030611;28;20033;-78
2021/08/12 07:34:09;;;;;;;11.60;8.85;;;;;;;;;;5010371;28;20104;-77
2021/08/12 07:36:35;;;;;;;12.90;9.65;;;;;;;;;;5031737;28;20078;-78
2021/08/12 07:39:02;;;;;;;13.02;9.35;;;;;;;;;;5037815;28;20698;-77
2021/08/12 07:41:28;;;;;;;12.60;9.15;;;;;;;;;;5032373;28;20477;-77
2021/08/12 07:43:54;;;;;;;12.30;9.48;;;;;;;;;;5026854;28;20091;-78
2021/08/12 07:46:19;;;;;;;12.95;9.55;;;;;;;;;;5023904;28;20040;-78
2021/08/12 07:48:44;;;;;;;14.10;9.82;;;;;;;;;;5028355;28;20417;-78
2021/08/12 07:51:10;;;;;;;13.50;10.30;;;;;;;;;;5029520;28;20029;-77
2021/08/12 07:53:36;;;;;;;12.02;9.75;;;;;;;;;;5026144;28;20407;-77
2021/08/12 07:56:01;;;;;;;14.45;9.98;;;;;;;;;;5022721;28;20101;-77
2021/08/12 07:58:27;;;;;;;13.48;9.18;;;;;;;;;;5025980;28;20044;-78
2021/08/12 08:00:53;;;;;;;14.73;9.20;;;;;;;;;;5027416;28;20095;-78
2021/08/12 08:03:19;;;;;;;14.73;8.77;;;;;;;;;;5026244;28;20064;-78
2021/08/12 08:05:45;;;;;;;14.07;9.10;;;;;;;;;;5029406;28;20037;-77
2021/08/12 08:08:10;;;;;;;13.77;9.15;;;;;;;;;;5030785;28;20033;-78
2021/08/12 08:10:35;;;;;;;14.30;9.63;;;;;;;;;;5032506;28;20143;-78
2021/08/12 08:13:01;;;;;;;13.75;9.20;;;;;;;;;;5031194;28;20079;-79
2021/08/12 08:15:27;;;;;;;12.65;9.32;;;;;;;;;;5028972;28;20045;-79
2021/08/12 08:17:52;;;;;;;14.10;9.15;;;;;;;;;;5012273;28;20077;-79
2021/08/12 08:20:18;;;;;;;12.30;9.00;;;;;;;;;;5032815;28;20029;-79
2021/08/12 08:22:44;;;;;;;12.50;8.73;;;;;;;;;;5029951;28;20163;-79
2021/08/12 08:25:11;;;;;;;11.48;8.30;;;;;;;;;;5030613;28;20064;-79
2021/08/12 08:27:37;;;;;;;11.00;7.60;;;;;;;;;;5032144;28;21710;-79
2021/08/12 08:30:03;;;;;;;12.43;7.57;;;;;;;;;;5028839;28;20116;-79
2021/08/12 08:32:28;;;;;;;10.68;7.50;;;;;;;;;;5028995;28;20492;-80
2021/08/12 08:34:54;;;;;;;11.40;6.95;;;;;;;;;;5020806;28;20037;-80
2021/08/12 08:37:20;;;;;;;9.80;6.90;;;;;;;;;;5025678;28;20033;-80
2021/08/12 08:39:46;;;;;;;8.65;6.75;;;;;;;;;;5028335;28;20079;-80
2021/08/12 08:42:12;;;;;;;10.82;7.25;;;;;;;;;;5030245;28;20038;-80
2021/08/12 08:44:40;;;;;;;8.73;6.60;;;;;;;;;;5026881;28;20081;-80
2021/08/12 08:47:09;;;;;;;8.80;6.15;;;;;;;;;;5027901;28;20062;-80
2021/08/12 08:49:41;;;;;;;11.20;6.45;;;;;;;;;;5027873;28;20029;-80
2021/08/12 08:52:10;;;;;;;8.40;6.38;;;;;;;;;;5029632;28;20547;-79
2021/08/12 08:54:39;;;;;;;10.43;6.93;;;;;;;;;;5007817;28;20044;-79
2021/08/12 08:57:06;;;;;;;9.80;6.40;;;;;;;;;;5026530;28;20041;-80
2021/08/12 08:59:34;;;;;;;9.40;6.63;;;;;;;;;;5017493;28;20065;-79
2021/08/12 09:02:01;;;;;;;10.98;7.15;;;;;;;;;;5023536;28;20035;-79
2021/08/12 09:04:26;;;;;;;8.88;6.30;;;;;;;;;;5021653;28;20033;-80
2021/08/12 09:06:52;;;;;;;11.10;6.10;;;;;;;;;;5011020;28;20072;-80
2021/08/12 09:09:17;;;;;;;9.38;5.60;;;;;;;;;;5025258;28;20593;-79
2021/08/12 09:11:43;;;;;;;10.98;6.25;;;;;;;;;;5024190;28;20090;-79
2021/08/12 09:14:35;;;;;;;12.15;7.40;;;;;;;;;;5024912;28;20029;-80
2021/08/12 09:17:24;;;;;;;9.85;6.40;;;;;;;;;;5023282;28;20092;-79
2021/08/12 09:20:19;;;;;;;9.02;6.38;;;;;;;;;;5016602;28;20840;-80
2021/08/12 09:22:51;;;;;;;11.00;6.20;;;;;;;;;;5023255;28;20068;-79
2021/08/12 09:25:27;;;;;;;9.82;5.55;;;;;;;;;;5026284;28;20134;-79
2021/08/12 09:28:20;;;;;;;8.35;5.22;;;;;;;;;;5042012;28;20041;-79
2021/08/12 09:31:03;;;;;;;9.65;6.30;;;;;;;;;;5020041;28;20056;-80
2021/08/12 09:33:42;;;;;;;7.97;4.97;;;;;;;;;;5023921;28;20040;-79
2021/08/12 09:36:29;;;;;;;7.78;5.20;;;;;;;;;;5028015;28;20037;-79
2021/08/12 09:39:19;;;;;;;7.13;4.90;;;;;;;;;;5021960;28;20029;-80
2021/08/12 09:41:55;;;;;;;9.52;4.82;;;;;;;;;;5038041;28;20032;-79
2021/08/12 09:44:35;;;;;;;8.00;5.20;;;;;;;;;;5017259;28;20117;-80
2021/08/12 09:47:05;;;;;;;8.68;6.30;;;;;;;;;;5020364;28;20040;-79
2021/08/12 09:49:45;;;;;;;8.43;4.70;;;;;;;;;;5021688;28;20056;-80
2021/08/12 09:52:28;;;;;;;8.60;5.10;;;;;;;;;;5032228;28;20033;-79
2021/08/12 09:55:22;;;;;;;8.35;5.32;;;;;;;;;;5023410;28;20120;-79
2021/08/12 09:57:51;;;;;;;8.90;5.38;;;;;;;;;;5015417;28;20037;-80
2021/08/12 10:00:25;;;;;;;9.43;6.10;;;;;;;;;;5026127;28;20120;-79
2021/08/12 10:02:53;;;;;;;6.68;5.10;;;;;;;;;;5027111;28;20083;-80
2021/08/12 10:05:19;;;;;;;10.65;6.07;;;;;;;;;;5023079;28;20022;-80
2021/08/12 10:07:49;;;;;;;8.00;5.60;;;;;;;;;;5032724;28;20116;-80
2021/08/12 10:10:19;;;;;;;8.18;5.35;;;;;;;;;;5014587;28;20069;-80
2021/08/12 10:12:50;;;;;;;7.20;5.03;;;;;;;;;;5031166;28;20564;-80
2021/08/12 10:15:19;;;;;;;9.40;5.82;;;;;;;;;;5034964;28;20017;-80
2021/08/12 10:17:45;;;;;;;10.02;5.80;;;;;;;;;;5024387;28;20021;-80
2021/08/12 10:20:30;;;;;;;8.15;5.30;;;;;;;;;;5026664;28;20060;-79
2021/08/12 10:22:57;;;;;;;7.22;5.10;;;;;;;;;;5031320;28;20052;-80
2021/08/12 10:25:26;;;;;;;6.65;5.03;;;;;;;;;;5027232;28;20034;-80
2021/08/12 10:28:03;;;;;;;7.53;5.00;;;;;;;;;;5025652;28;20128;-80
2021/08/12 10:30:29;;;;;;;6.63;4.65;;;;;;;;;;5041879;28;20456;-80
2021/08/12 10:32:55;;;;;;;11.40;5.45;;;;;;;;;;5010002;28;20029;-80
2021/08/12 10:35:23;;;;;;;7.05;4.53;;;;;;;;;;5024993;28;20041;-80
2021/08/12 10:37:50;;;;;;;7.30;4.70;;;;;;;;;;5033844;28;20560;-80
2021/08/12 10:40:16;;;;;;;7.70;4.80;;;;;;;;;;5028797;28;20254;-80
2021/08/12 10:42:45;;;;;;;7.00;4.93;;;;;;;;;;5031001;28;20034;-80
2021/08/12 10:45:13;;;;;;;6.55;4.45;;;;;;;;;;5029462;28;20309;-80
2021/08/12 10:47:39;;;;;;;8.18;4.93;;;;;;;;;;5031263;28;20477;-80
2021/08/12 10:50:23;;;;;;;6.18;4.63;;;;;;;;;;5026301;28;20679;-80
2021/08/12 10:53:04;;;;;;;5.75;4.25;;;;;;;;;;5031173;28;20029;-80
2021/08/12 10:55:30;;;;;;;6.47;4.00;;;;;;;;;;5020752;28;20381;-80
2021/08/12 10:58:18;;;;;;;7.75;4.32;;;;;;;;;;5011611;28;20037;-80
2021/08/12 11:00:57;;;;;;;7.80;4.70;;;;;;;;;;5028739;28;20037;-80
2021/08/12 11:03:32;;;;;;;7.10;4.25;;;;;;;;;;5028155;28;20563;-80
2021/08/12 11:06:00;;;;;;;8.60;4.57;;;;;;;;;;5030472;28;20120;-80
2021/08/12 11:08:54;;;;;;;9.32;4.13;;;;;;;;;;5032547;28;20106;-80
2021/08/12 11:11:22;;;;;;;6.50;4.50;;;;;;;;;;5029891;28;20056;-80
2021/08/12 11:13:49;;;;;;;6.28;4.32;;;;;;;;;;5027240;28;20064;-80
2021/08/12 11:16:15;;;;;;;6.75;4.13;;;;;;;;;;5027913;28;20029;-79
2021/08/12 11:18:59;;;;;;;7.15;4.45;;;;;;;;;;5008010;28;20034;-80
2021/08/12 11:21:30;;;;;;;7.05;4.28;;;;;;;;;;5024320;28;20053;-79
2021/08/12 11:23:57;;;;;;;8.02;4.03;;;;;;;;;;5028594;28;20120;-80
2021/08/12 11:26:23;;;;;;;7.57;4.20;;;;;;;;;;5012905;28;20029;-80
2021/08/12 11:28:55;;;;;;;8.52;3.75;;;;;;;;;;5031773;28;20029;-80
2021/08/12 11:31:20;;;;;;;6.57;4.07;;;;;;;;;;5031622;28;20523;-80
2021/08/12 11:33:50;;;;;;;5.93;4.10;;;;;;;;;;5034348;28;20049;-80
2021/08/12 11:36:28;;;;;;;5.78;3.85;;;;;;;;;;5027453;28;20026;-80
2021/08/12 11:39:04;;;;;;;5.68;4.30;;;;;;;;;;5028281;28;20029;-80
2021/08/12 11:41:42;;;;;;;6.00;3.63;;;;;;;;;;5050310;28;20032;-80
2021/08/12 11:44:16;;;;;;;6.43;4.13;;;;;;;;;;5028467;28;20084;-80
2021/08/12 11:46:42;;;;;;;7.60;3.90;;;;;;;;;;5028183;28;20021;-80
2021/08/12 11:49:13;;;;;;;6.30;4.15;;;;;;;;;;5014697;28;20108;-80
2021/08/12 11:51:38;;;;;;;5.60;3.90;;;;;;;;;;5029620;28;20029;-80
2021/08/12 11:54:04;;;;;;;6.00;4.30;;;;;;;;;;5034808;28;20025;-79
2021/08/12 11:56:32;;;;;;;6.18;4.40;;;;;;;;;;5026504;28;20472;-80
2021/08/12 11:58:59;;;;;;;5.90;3.83;;;;;;;;;;5024333;28;20022;-80
2021/08/12 12:01:27;;;;;;;6.18;4.13;;;;;;;;;;5027991;28;20017;-80
2021/08/12 12:04:04;;;;;;;6.78;4.05;;;;;;;;;;5025822;28;20037;-80
2021/08/12 12:06:40;;;;;;;6.32;4.20;;;;;;;;;;5033034;28;20029;-79
2021/08/12 12:09:26;;;;;;;7.00;3.80;;;;;;;;;;5029453;28;20029;-80
2021/08/12 12:11:56;;;;;;;6.07;4.07;;;;;;;;;;5024033;28;20030;-80
2021/08/12 12:14:27;;;;;;;6.22;4.03;;;;;;;;;;5027719;28;20469;-80
2021/08/12 12:17:13;;;;;;;6.90;4.50;;;;;;;;;;5026999;28;20037;-80
2021/08/12 12:20:01;;;;;;;7.45;4.10;;;;;;;;;;5029243;28;20366;-80
2021/08/12 12:22:33;;;;;;;5.78;4.10;;;;;;;;;;5031513;28;20029;-80
2021/08/12 12:25:00;;;;;;;7.68;4.85;;;;;;;;;;5022139;28;20405;-80
2021/08/12 12:27:27;;;;;;;6.20;4.22;;;;;;;;;;5023293;28;20065;-80
2021/08/12 12:29:54;;;;;;;6.88;3.75;;;;;;;;;;5021939;28;20497;-80
2021/08/12 12:32:19;;;;;;;6.68;3.85;;;;;;;;;;5026564;28;20029;-80
2021/08/12 12:34:49;;;;;;;7.80;4.35;;;;;;;;;;4989097;28;20087;-80
2021/08/12 12:37:15;;;;;;;5.68;4.22;;;;;;;;;;5026803;28;20048;-80
2021/08/12 12:39:41;;;;;;;7.47;4.90;;;;;;;;;;5032805;28;20037;-80
2021/08/12 12:42:07;;;;;;;9.90;4.40;;;;;;;;;;5023868;28;20026;-80
2021/08/12 12:44:32;;;;;;;7.55;4.30;;;;;;;;;;5026899;28;20073;-80
2021/08/12 12:46:58;;;;;;;6.25;4.18;;;;;;;;;;5029068;28;20036;-80
2021/08/12 12:49:33;;;;;;;6.90;4.45;;;;;;;;;;4999118;28;20105;-80
2021/08/12 12:52:09;;;;;;;6.68;4.35;;;;;;;;;;5032371;28;20036;-80
2021/08/12 12:54:37;;;;;;;7.68;4.32;;;;;;;;;;5030081;28;20400;-80
2021/08/12 12:57:03;;;;;;;7.25;4.40;;;;;;;;;;5034068;28;20025;-80
2021/08/12 12:59:29;;;;;;;7.57;4.53;;;;;;;;;;5025218;28;20038;-80
2021/08/12 13:01:59;;;;;;;7.05;4.25;;;;;;;;;;5029805;28;20025;-80
2021/08/12 13:04:24;;;;;;;7.35;4.22;;;;;;;;;;5028510;28;20086;-80
2021/08/12 13:06:51;;;;;;;7.13;4.45;;;;;;;;;;5016323;28;20041;-79
2021/08/12 13:09:32;;;;;;;7.07;4.47;;;;;;;;;;5023016;28;20048;-80
2021/08/12 13:12:21;;;;;;;6.97;4.20;;;;;;;;;;5026615;28;20060;-80
2021/08/12 13:14:46;;;;;;;7.03;4.78;;;;;;;;;;5031208;28;20100;-79
2021/08/12 13:17:11;;;;;;;5.72;4.35;;;;;;;;;;5008666;28;20577;-80
2021/08/12 13:19:37;;;;;;;6.30;4.10;;;;;;;;;;5004057;28;20392;-80
2021/08/12 13:22:18;;;;;;;7.55;4.30;;;;;;;;;;5026005;28;20045;-80
2021/08/12 13:24:43;;;;;;;6.90;4.78;;;;;;;;;;5022477;28;20095;-80
2021/08/12 13:27:09;;;;;;;7.40;4.60;;;;;;;;;;5026358;28;20029;-80
2021/08/12 13:29:39;;;;;;;6.32;4.55;;;;;;;;;;5031616;28;20033;-80
2021/08/12 13:32:12;;;;;;;5.88;4.47;;;;;;;;;;5026742;28;20124;-80
2021/08/12 13:34:40;;;;;;;7.28;4.70;;;;;;;;;;5027685;28;20115;-80
2021/08/12 13:37:06;;;;;;;6.40;4.63;;;;;;;;;;5028827;28;20033;-80
2021/08/12 13:39:33;;;;;;;6.45;4.90;;;;;;;;;;5027439;28;20079;-80
2021/08/12 13:42:03;;;;;;;8.38;4.50;;;;;;;;;;5023168;28;20504;-80
2021/08/12 13:44:31;;;;;;;5.57;4.18;;;;;;;;;;5021975;28;20030;-79
2021/08/12 13:46:58;;;;;;;7.03;4.40;;;;;;;;;;5032525;28;20112;-80
2021/08/12 13:49:24;;;;;;;9.18;4.22;;;;;;;;;;5030855;28;20030;-80
2021/08/12 13:51:51;;;;;;;9.02;4.60;;;;;;;;;;5023270;28;20033;-79
2021/08/12 13:54:17;;;;;;;6.88;4.55;;;;;;;;;;5028118;28;20036;-80
2021/08/12 13:56:43;;;;;;;6.05;4.38;;;;;;;;;;5027366;28;20037;-80
2021/08/12 13:59:12;;;;;;;8.73;4.68;;;;;;;;;;5044547;28;20113;-80
2021/08/12 14:01:38;;;;;;;6.20;4.22;;;;;;;;;;5011322;28;21444;-80
2021/08/12 14:04:04;;;;;;;7.00;4.22;;;;;;;;;;5007267;28;20037;-80
2021/08/12 14:06:29;;;;;;;6.25;4.55;;;;;;;;;;5029053;28;20470;-79
2021/08/12 14:08:55;;;;;;;6.78;4.13;;;;;;;;;;5025641;28;20029;-79
2021/08/12 14:11:20;;;;;;;5.68;4.38;;;;;;;;;;5005121;28;20045;-79
2021/08/12 14:13:46;;;;;;;6.03;4.65;;;;;;;;;;5010974;28;20032;-79
2021/08/12 14:16:12;;;;;;;7.53;4.30;;;;;;;;;;5025906;28;20116;-80
2021/08/12 14:18:42;;;;;;;8.20;4.55;;;;;;;;;;5029229;28;20047;-80
2021/08/12 14:21:15;;;;;;;7.03;4.65;;;;;;;;;;5030844;28;20073;-79
2021/08/12 14:23:41;;;;;;;;;;;;;;;;;;5030314;28;20040;-79
2021/08/12 14:26:07;;;;;;;6.97;4.10;;;;;;;;;;5026871;28;19917;-79
2021/08/12 14:28:33;;;;;;;7.57;4.10;;;;;;;;;;5024786;28;20053;-79
2021/08/12 14:31:01;;;;;;;6.30;4.10;;;;;;;;;;5028389;28;20068;-79
2021/08/12 14:33:27;;;;;;;5.45;4.20;;;;;;;;;;5028195;28;20462;-79
2021/08/12 14:35:52;;;;;;;6.88;3.95;;;;;;;;;;5029450;28;20083;-79
2021/08/12 14:38:18;;;;;;;7.72;4.30;;;;;;;;;;4981272;28;20073;-79
2021/08/12 14:40:45;;;;;;;6.85;4.50;;;;;;;;;;5012486;28;20060;-79